Time;durP1;ratioP1;P1;durP2;ratioP2;P2;SDS_P1;SDS_P2;PMS_P1;PMS_P2;Temp;Humidity;BMP_temperature;BMP_pressure;BME280_temperature;BME280_humidity;BME280_pressure;Samples;Min_cycle;Max_cycle;Signal;HPM_P1;HPM_P2
2023/10/08 00:01:12;;;;;;;1.10;0.50;;;17.50;99.90;;;;;;4977859;28;20049;-79
2023/10/08 00:03:37;;;;;;;1.45;0.50;;;17.50;99.90;;;;;;5018061;28;20488;-76
2023/10/08 00:06:07;;;;;;;1.15;0.50;;;17.50;99.90;;;;;;4997482;28;20132;-77
2023/10/08 00:08:33;;;;;;;1.27;0.40;;;17.60;99.90;;;;;;4981460;28;20052;-78
2023/10/08 00:11:06;;;;;;;0.40;0.40;;;17.50;99.90;;;;;;5030492;28;20419;-78
2023/10/08 00:13:36;;;;;;;1.05;0.75;;;17.40;99.90;;;;;;4998250;28;20520;-77
2023/10/08 00:16:01;;;;;;;1.58;0.50;;;17.50;99.90;;;;;;4981227;28;20375;-77
2023/10/08 00:18:28;;;;;;;1.20;0.60;;;17.60;99.90;;;;;;4996075;28;20052;-77
2023/10/08 00:23:25;;;;;;;1.92;0.60;;;17.40;99.90;;;;;;5024792;28;20037;-77
2023/10/08 00:25:52;;;;;;;3.17;0.70;;;17.50;99.90;;;;;;4996671;28;20041;-76
2023/10/08 00:28:18;;;;;;;1.33;0.68;;;17.60;99.90;;;;;;4976914;28;20061;-76
2023/10/08 00:30:44;;;;;;;3.90;0.70;;;17.60;99.90;;;;;;5007323;28;20660;-76
2023/10/08 00:33:11;;;;;;;1.75;0.70;;;17.60;99.90;;;;;;5021937;28;20044;-76
2023/10/08 00:35:41;;;;;;;3.80;0.70;;;17.50;99.90;;;;;;5024737;28;20829;-77
2023/10/08 00:38:20;;;;;;;1.02;0.70;;;17.50;99.90;;;;;;5012287;28;20383;-77
2023/10/08 00:40:46;;;;;;;0.90;0.70;;;17.50;99.90;;;;;;4992859;28;20534;-78
2023/10/08 00:43:33;;;;;;;1.15;0.90;;;17.50;99.90;;;;;;5027232;28;20163;-77
2023/10/08 00:45:59;;;;;;;2.05;0.80;;;17.60;99.90;;;;;;4976957;28;20498;-77
2023/10/08 00:48:29;;;;;;;5.07;3.05;;;17.50;99.90;;;;;;5012572;28;20048;-77
2023/10/08 00:51:25;;;;;;;2.38;1.60;;;17.50;99.90;;;;;;4995277;28;20049;-76
2023/10/08 00:53:43;;;;;;;2.95;1.80;;;17.50;99.90;;;;;;5010782;28;20132;-77
2023/10/08 00:56:13;;;;;;;4.18;1.85;;;17.50;99.90;;;;;;4994094;28;20045;-78
2023/10/08 00:58:46;;;;;;;2.67;1.33;;;17.50;99.90;;;;;;5008894;28;20502;-78
2023/10/08 01:01:12;;;;;;;2.65;0.90;;;17.50;99.90;;;;;;4990940;28;20383;-78
2023/10/08 01:03:44;;;;;;;2.17;0.85;;;17.50;99.90;;;;;;4990433;28;20116;-78
2023/10/08 01:06:11;;;;;;;3.38;0.98;;;17.50;99.90;;;;;;5037755;28;20540;-78
2023/10/08 01:08:38;;;;;;;3.38;0.80;;;17.50;99.90;;;;;;4995600;28;20069;-77
2023/10/08 01:11:30;;;;;;;1.10;0.85;;;17.40;99.90;;;;;;4999659;28;20142;-77
2023/10/08 01:13:58;;;;;;;2.50;0.80;;;17.60;99.90;;;;;;5008340;28;20084;-76
2023/10/08 01:16:27;;;;;;;1.38;0.90;;;17.60;99.90;;;;;;4994357;28;20129;-76
2023/10/08 01:18:54;;;;;;;2.03;1.02;;;17.50;99.90;;;;;;5017291;28;20029;-76
2023/10/08 01:21:34;;;;;;;2.92;1.08;;;17.50;99.90;;;;;;4994488;28;20114;-77
2023/10/08 01:24:05;;;;;;;1.42;0.90;;;17.60;99.90;;;;;;5027712;28;20046;-77
2023/10/08 01:26:33;;;;;;;2.65;1.23;;;17.60;99.90;;;;;;5024116;28;20033;-77
2023/10/08 01:29:07;;;;;;;1.60;1.08;;;17.50;99.90;;;;;;5012044;28;20694;-77
2023/10/08 01:31:33;;;;;;;1.63;1.25;;;17.60;99.90;;;;;;5012074;28;20042;-77
2023/10/08 01:33:58;;;;;;;3.38;1.20;;;17.60;99.90;;;;;;4995972;28;20462;-77
2023/10/08 01:36:28;;;;;;;1.48;1.27;;;17.60;99.90;;;;;;4979904;28;20056;-77
2023/10/08 01:38:54;;;;;;;3.15;1.10;;;17.70;99.90;;;;;;4980538;28;20045;-77
2023/10/08 01:41:30;;;;;;;2.78;1.10;;;17.70;99.90;;;;;;4994864;28;20038;-77
2023/10/08 01:44:00;;;;;;;3.35;1.10;;;17.60;99.90;;;;;;5006158;28;20056;-76
2023/10/08 01:46:26;;;;;;;2.25;1.15;;;17.70;99.90;;;;;;5002643;28;20461;-77
2023/10/08 01:49:08;;;;;;;2.20;1.10;;;17.60;99.90;;;;;;5012537;28;20044;-77
2023/10/08 01:51:38;;;;;;;3.92;1.10;;;17.50;99.90;;;;;;5010602;28;20064;-77
2023/10/08 01:54:10;;;;;;;3.00;1.17;;;17.70;99.90;;;;;;4992614;28;20064;-76
2023/10/08 01:56:43;;;;;;;3.38;1.00;;;17.70;99.90;;;;;;4984518;28;20041;-76
2023/10/08 01:59:14;;;;;;;3.92;1.10;;;17.70;99.90;;;;;;4992758;28;20046;-76
2023/10/08 02:01:40;;;;;;;2.70;1.10;;;17.70;99.90;;;;;;5010213;28;20090;-76
2023/10/08 02:04:11;;;;;;;4.20;1.20;;;17.70;99.90;;;;;;4994779;28;20056;-77
2023/10/08 02:06:39;;;;;;;4.05;1.67;;;17.70;99.90;;;;;;5010579;28;20087;-77
2023/10/08 02:09:09;;;;;;;4.40;1.08;;;17.80;99.90;;;;;;4994399;28;20041;-77
2023/10/08 02:11:43;;;;;;;2.13;1.20;;;17.80;99.90;;;;;;5045312;28;20045;-77
2023/10/08 02:14:09;;;;;;;1.83;1.10;;;17.70;99.90;;;;;;5009997;28;20046;-78
2023/10/08 02:16:35;;;;;;;2.38;1.23;;;17.80;99.90;;;;;;5011536;28;20418;-77
2023/10/08 02:19:00;;;;;;;2.53;1.40;;;17.80;99.90;;;;;;4981683;28;20046;-77
2023/10/08 02:21:27;;;;;;;2.10;1.00;;;17.70;99.90;;;;;;5028068;28;20148;-77
2023/10/08 02:23:53;;;;;;;2.55;1.30;;;17.80;99.90;;;;;;4994179;28;20038;-77
2023/10/08 02:26:19;;;;;;;2.38;1.30;;;17.80;99.90;;;;;;4995441;28;20044;-77
2023/10/08 02:28:45;;;;;;;1.77;1.25;;;17.70;99.90;;;;;;4962448;28;20046;-78
2023/10/08 02:31:11;;;;;;;2.28;1.30;;;17.80;99.90;;;;;;4994618;28;20060;-77
2023/10/08 02:33:37;;;;;;;2.75;1.55;;;17.70;99.90;;;;;;5008729;28;20068;-78
2023/10/08 02:36:04;;;;;;;1.40;1.30;;;17.70;99.90;;;;;;4994614;28;20041;-78
2023/10/08 02:38:37;;;;;;;4.13;1.50;;;17.80;99.90;;;;;;4995131;28;20041;-78
2023/10/08 02:41:06;;;;;;;4.00;1.55;;;17.70;99.90;;;;;;4995279;28;20034;-78
2023/10/08 02:43:34;;;;;;;3.85;1.60;;;17.70;99.90;;;;;;4995562;28;20505;-77
2023/10/08 02:46:00;;;;;;;3.45;1.40;;;17.80;99.90;;;;;;5028458;28;20053;-77
2023/10/08 02:48:27;;;;;;;4.13;1.73;;;17.80;99.90;;;;;;4995709;28;20052;-77
2023/10/08 02:50:54;;;;;;;2.35;1.40;;;17.70;99.90;;;;;;4994600;28;20094;-77
2023/10/08 02:53:21;;;;;;;2.45;1.55;;;17.60;99.90;;;;;;5025381;28;20092;-77
2023/10/08 02:55:46;;;;;;;3.70;1.55;;;17.70;99.90;;;;;;5021758;28;20128;-77
2023/10/08 02:58:18;;;;;;;3.35;1.55;;;17.70;99.90;;;;;;4981536;28;20447;-77
2023/10/08 03:00:46;;;;;;;5.80;1.63;;;17.80;99.90;;;;;;5028435;28;20073;-77
2023/10/08 03:03:16;;;;;;;4.53;1.35;;;17.70;99.90;;;;;;5009877;28;20045;-78
2023/10/08 03:05:46;;;;;;;3.38;1.52;;;17.80;99.90;;;;;;4998675;28;20504;-78
2023/10/08 03:08:21;;;;;;;6.97;1.48;;;17.80;99.90;;;;;;4993894;28;20474;-77
2023/10/08 03:10:55;;;;;;;4.20;1.40;;;17.60;99.90;;;;;;4998920;28;20472;-78
2023/10/08 03:13:21;;;;;;;3.45;1.42;;;17.60;99.90;;;;;;5011589;28;20072;-77
2023/10/08 03:18:35;;;;;;;5.20;1.70;;;17.70;99.90;;;;;;5029638;28;20100;-76
2023/10/08 03:21:19;;;;;;;3.90;1.27;;;17.70;99.90;;;;;;4993723;28;20088;-77
2023/10/08 03:23:47;;;;;;;3.42;1.35;;;17.70;99.90;;;;;;4996860;28;20045;-78
2023/10/08 03:26:32;;;;;;;3.75;1.60;;;17.60;99.90;;;;;;4996332;28;20048;-77
2023/10/08 03:29:05;;;;;;;;;;;17.80;99.90;;;;;;5038527;28;20045;-77
2023/10/08 03:32:15;;;;;;;2.35;1.30;;;17.80;99.90;;;;;;4997786;28;19924;-78
2023/10/08 03:34:20;;;;;;;3.08;1.30;;;17.70;99.90;;;;;;4999688;28;20119;-77
2023/10/08 03:36:49;;;;;;;4.53;1.40;;;17.70;99.90;;;;;;4978476;28;20506;-77
2023/10/08 03:39:15;;;;;;;4.50;1.50;;;17.60;99.90;;;;;;4997393;28;20033;-77
2023/10/08 03:41:41;;;;;;;2.88;1.50;;;17.70;99.90;;;;;;5011933;28;20092;-77
2023/10/08 03:44:17;;;;;;;5.25;1.50;;;17.80;99.90;;;;;;5008592;28;20063;-78
2023/10/08 03:46:43;;;;;;;4.13;1.48;;;17.80;99.90;;;;;;4995269;28;20103;-77
2023/10/08 03:49:24;;;;;;;3.47;1.70;;;17.70;99.90;;;;;;4996175;28;20091;-77
2023/10/08 03:51:51;;;;;;;5.15;1.80;;;17.70;99.90;;;;;;5035869;28;20091;-77
2023/10/08 03:54:34;;;;;;;5.13;1.27;;;17.60;99.90;;;;;;4995095;28;20080;-77
2023/10/08 03:57:01;;;;;;;1.90;1.40;;;17.60;99.90;;;;;;5011529;28;20483;-77
2023/10/08 03:59:30;;;;;;;5.72;1.58;;;17.80;99.90;;;;;;5018129;28;20482;-77
2023/10/08 04:04:51;;;;;;;4.30;1.65;;;17.80;99.90;;;;;;5035250;28;20120;-78
2023/10/08 04:12:42;;;;;;;5.45;1.80;;;17.70;99.90;;;;;;5038402;28;20045;-79
2023/10/08 04:15:08;;;;;;;2.53;1.67;;;17.80;99.90;;;;;;5034548;28;20046;-79
2023/10/08 04:17:43;;;;;;;4.38;1.55;;;17.60;99.90;;;;;;4991577;28;20040;-79
2023/10/08 04:22:59;;;;;;;3.10;1.50;;;17.70;99.90;;;;;;5026887;28;20125;-79
2023/10/08 04:25:29;;;;;;;3.13;1.67;;;17.60;99.90;;;;;;5028354;28;20037;-79
2023/10/08 04:28:00;;;;;;;6.85;1.85;;;17.60;99.90;;;;;;5021429;28;20442;-79
2023/10/08 04:30:36;;;;;;;4.88;1.90;;;17.60;99.90;;;;;;5012755;28;20626;-77
2023/10/08 04:33:06;;;;;;;2.90;1.50;;;17.60;99.90;;;;;;4994971;28;20041;-77
2023/10/08 04:35:36;;;;;;;7.70;1.67;;;17.70;99.90;;;;;;5030446;28;20100;-78
2023/10/08 04:38:08;;;;;;;2.50;1.70;;;17.60;99.90;;;;;;5010881;28;20030;-77
2023/10/08 04:40:41;;;;;;;4.30;1.55;;;17.60;99.90;;;;;;4996128;28;20102;-78
2023/10/08 04:43:10;;;;;;;3.03;1.55;;;17.60;99.90;;;;;;5002648;28;20034;-79
2023/10/08 04:45:37;;;;;;;4.63;1.77;;;17.60;99.90;;;;;;5005848;28;20045;-78
2023/10/08 04:48:09;;;;;;;5.82;1.70;;;17.80;99.90;;;;;;4996300;28;20064;-78
2023/10/08 04:50:37;;;;;;;6.35;1.80;;;17.80;99.90;;;;;;4962325;28;20076;-79
2023/10/08 04:53:07;;;;;;;5.35;2.00;;;17.60;99.90;;;;;;5001947;28;20053;-79
2023/10/08 04:55:35;;;;;;;3.92;1.70;;;17.60;99.90;;;;;;4978947;28;20043;-78
2023/10/08 04:58:05;;;;;;;3.60;1.60;;;17.70;99.90;;;;;;4994312;28;20041;-78
2023/10/08 05:03:16;;;;;;;3.80;1.58;;;17.60;99.90;;;;;;5011322;28;20095;-77
2023/10/08 05:08:32;;;;;;;3.25;1.30;;;17.60;99.90;;;;;;5009319;28;20049;-78
2023/10/08 05:11:10;;;;;;;5.53;1.70;;;17.60;99.90;;;;;;4994499;28;20505;-77
2023/10/08 05:13:45;;;;;;;5.25;1.60;;;17.60;99.90;;;;;;4979506;28;20044;-78
2023/10/08 05:16:35;;;;;;;2.55;0.90;;;17.60;99.90;;;;;;4994402;28;20037;-78
2023/10/08 05:19:24;;;;;;;6.05;1.27;;;17.70;99.90;;;;;;5018677;28;20084;-78
2023/10/08 05:22:05;;;;;;;6.00;1.50;;;17.60;99.90;;;;;;4982789;28;20073;-77
2023/10/08 05:24:37;;;;;;;5.13;1.38;;;17.60;99.90;;;;;;4992405;28;20432;-78
2023/10/08 05:33:05;;;;;;;9.35;1.90;;;17.50;99.90;;;;;;4980780;28;19921;-79
2023/10/08 05:41:27;;;;;;;2.78;1.45;;;17.60;99.90;;;;;;4975601;28;20049;-78
2023/10/08 05:44:13;;;;;;;6.43;1.40;;;17.60;99.90;;;;;;4994523;28;20119;-78
2023/10/08 05:46:46;;;;;;;7.10;1.38;;;17.50;99.90;;;;;;4988538;28;20081;-78
2023/10/08 06:02:48;;;;;;;3.40;1.30;;;17.40;99.90;;;;;;5008013;28;20721;-78
2023/10/08 06:13:05;;;;;;;10.02;1.92;;;17.30;99.90;;;;;;5004126;28;20072;-81
2023/10/08 06:16:05;;;;;;;2.85;1.40;;;17.40;99.90;;;;;;4987460;28;20081;-81
2023/10/08 06:18:35;;;;;;;3.25;1.38;;;17.50;99.90;;;;;;4989233;28;20056;-78
2023/10/08 06:21:11;;;;;;;10.05;2.03;;;17.50;99.90;;;;;;4992389;28;20045;-79
2023/10/08 06:23:41;;;;;;;6.95;1.50;;;17.40;99.90;;;;;;5009967;28;20401;-76
2023/10/08 06:28:41;;;;;;;4.88;1.90;;;17.40;99.90;;;;;;5008811;28;20488;-79
2023/10/08 06:31:17;;;;;;;7.80;1.55;;;17.40;99.90;;;;;;4991550;28;20099;-79
2023/10/08 06:33:44;;;;;;;7.80;1.75;;;17.40;99.90;;;;;;4993770;28;20095;-79
2023/10/08 06:38:38;;;;;;;4.30;1.40;;;17.50;99.90;;;;;;4996169;28;20041;-79
2023/10/08 06:43:49;;;;;;;6.90;1.60;;;17.50;99.90;;;;;;5039367;28;20121;-79
2023/10/08 06:46:22;;;;;;;6.20;1.80;;;17.60;99.90;;;;;;5009447;28;20498;-79
2023/10/08 06:48:49;;;;;;;6.97;1.70;;;17.70;99.90;;;;;;5018275;28;20188;-78
2023/10/08 06:51:17;;;;;;;7.65;1.83;;;17.60;99.90;;;;;;4976133;28;20037;-80
2023/10/08 06:53:47;;;;;;;5.82;1.60;;;17.50;99.90;;;;;;4996201;28;20034;-78
2023/10/08 06:56:15;;;;;;;8.13;1.70;;;17.60;99.90;;;;;;4995495;28;20041;-79
2023/10/08 06:58:46;;;;;;;5.82;1.55;;;17.70;99.90;;;;;;4996012;28;20063;-79
2023/10/08 07:01:13;;;;;;;4.00;1.35;;;17.70;99.90;;;;;;4996280;28;20037;-79
2023/10/08 07:03:38;;;;;;;8.50;1.58;;;17.70;99.90;;;;;;4973427;28;20073;-79
2023/10/08 07:06:16;;;;;;;5.35;1.60;;;17.80;99.90;;;;;;4994949;28;20435;-78
2023/10/08 07:08:46;;;;;;;3.45;1.42;;;18.00;99.90;;;;;;5008361;28;20425;-78
2023/10/08 07:11:13;;;;;;;5.85;1.50;;;18.00;99.90;;;;;;4993680;28;20041;-79
2023/10/08 07:13:42;;;;;;;8.70;1.40;;;18.00;99.90;;;;;;4996114;28;20152;-79
2023/10/08 07:16:11;;;;;;;5.03;1.23;;;18.00;99.90;;;;;;5030827;28;20387;-78
2023/10/08 07:18:41;;;;;;;5.53;1.63;;;18.00;99.90;;;;;;5013139;28;20038;-80
2023/10/08 07:21:13;;;;;;;5.65;1.40;;;18.10;99.90;;;;;;4972063;28;1143079;-81
2023/10/08 07:26:38;;;;;;;6.57;1.90;;;18.10;99.90;;;;;;4952927;28;20057;-79
2023/10/08 07:29:09;;;;;;;8.98;1.50;;;18.20;99.90;;;;;;4964703;28;20038;-80
2023/10/08 07:31:36;;;;;;;5.68;1.63;;;18.10;99.90;;;;;;5004998;28;20497;-80
2023/10/08 07:34:16;;;;;;;5.03;1.27;;;18.20;99.90;;;;;;4978572;28;20037;-80
2023/10/08 07:36:50;;;;;;;2.65;1.13;;;18.20;99.90;;;;;;5004851;28;20075;-81
2023/10/08 07:39:26;;;;;;;;;;;18.20;99.90;;;;;;4999751;28;20049;-81
2023/10/08 07:41:56;;;;;;;5.38;1.40;;;18.20;99.90;;;;;;4985623;28;20607;-81
2023/10/08 07:44:23;;;;;;;8.55;1.55;;;18.20;99.90;;;;;;4977306;28;20048;-80
2023/10/08 07:46:56;;;;;;;4.10;1.40;;;18.20;99.90;;;;;;5013139;28;20045;-80
2023/10/08 07:49:25;;;;;;;7.82;1.35;;;18.20;99.90;;;;;;5012583;28;20052;-81
2023/10/08 07:51:52;;;;;;;6.63;1.50;;;18.20;99.90;;;;;;4997780;28;20041;-80
2023/10/08 07:54:24;;;;;;;6.72;1.50;;;18.30;99.90;;;;;;4997377;28;20042;-79
2023/10/08 07:57:08;;;;;;;6.47;1.30;;;18.30;99.90;;;;;;4997473;28;20147;-79
2023/10/08 07:59:46;;;;;;;8.38;1.73;;;18.30;99.90;;;;;;5023998;28;20116;-79
2023/10/08 08:02:14;;;;;;;13.02;1.73;;;18.30;99.90;;;;;;5029877;28;20068;-81
2023/10/08 08:04:45;;;;;;;5.88;1.17;;;18.30;99.90;;;;;;4994917;28;20120;-80
2023/10/08 08:07:18;;;;;;;9.13;1.63;;;18.40;99.90;;;;;;4997179;28;20163;-80
2023/10/08 08:09:52;;;;;;;6.20;1.48;;;18.40;99.90;;;;;;4994391;28;20115;-81
2023/10/08 08:12:21;;;;;;;7.18;1.67;;;18.50;99.90;;;;;;4998176;28;20045;-79
2023/10/08 08:14:48;;;;;;;5.60;1.42;;;18.50;99.90;;;;;;4995137;28;20517;-79
2023/10/08 08:17:14;;;;;;;5.38;1.52;;;18.50;99.90;;;;;;5037652;28;20444;-80
2023/10/08 08:19:45;;;;;;;5.18;1.35;;;18.70;99.90;;;;;;5005386;28;20512;-80
2023/10/08 08:22:30;;;;;;;8.13;1.67;;;18.70;99.90;;;;;;5009348;28;20052;-80
2023/10/08 08:25:05;;;;;;;;;;;18.70;99.90;;;;;;5012418;28;20076;-80
2023/10/08 08:27:34;;;;;;;10.43;2.10;;;18.70;99.90;;;;;;5038383;28;20709;-80
2023/10/08 08:30:10;;;;;;;8.70;2.42;;;18.80;99.90;;;;;;4991803;28;20068;-80
2023/10/08 08:32:47;;;;;;;8.40;1.60;;;18.90;99.90;;;;;;5007159;28;20116;-80
2023/10/08 08:35:16;;;;;;;4.60;1.15;;;18.80;99.90;;;;;;4992088;28;20122;-81
2023/10/08 08:37:43;;;;;;;5.43;1.30;;;19.00;99.90;;;;;;5009113;28;20046;-80
2023/10/08 08:40:28;;;;;;;5.07;1.50;;;19.00;99.90;;;;;;5009850;28;20036;-78
2023/10/08 08:42:55;;;;;;;7.35;1.60;;;19.00;99.90;;;;;;4995227;28;20041;-80
2023/10/08 08:45:26;;;;;;;6.53;1.63;;;18.90;99.90;;;;;;4996362;28;20045;-80
2023/10/08 08:47:53;;;;;;;9.52;2.63;;;19.00;99.90;;;;;;5010717;28;20045;-78
2023/10/08 08:50:19;;;;;;;6.65;1.70;;;19.00;99.90;;;;;;4994751;28;20049;-79
2023/10/08 08:52:45;;;;;;;5.18;1.60;;;19.00;99.90;;;;;;4993645;28;20041;-80
2023/10/08 08:55:14;;;;;;;7.30;1.70;;;19.10;99.90;;;;;;4994009;28;20433;-80
2023/10/08 08:57:49;;;;;;;5.93;1.45;;;19.20;99.90;;;;;;4995735;28;20045;-79
2023/10/08 09:00:16;;;;;;;;;;;19.20;99.90;;;;;;4996078;28;20741;-79
2023/10/08 09:02:44;;;;;;;4.90;1.50;;;19.20;99.90;;;;;;4993281;28;19928;-80
2023/10/08 09:05:23;;;;;;;5.93;1.50;;;19.30;99.90;;;;;;4993871;28;20037;-79
2023/10/08 09:08:03;;;;;;;7.55;1.70;;;19.50;99.90;;;;;;4991667;28;20049;-80
2023/10/08 09:10:36;;;;;;;6.07;1.58;;;19.60;99.90;;;;;;4969201;28;20470;-78
2023/10/08 09:13:08;;;;;;;8.23;1.60;;;19.50;99.90;;;;;;4992604;28;20056;-80
2023/10/08 09:15:34;;;;;;;7.68;1.40;;;19.60;99.90;;;;;;4991766;28;20048;-80
2023/10/08 09:18:00;;;;;;;6.35;1.63;;;19.60;99.90;;;;;;4995866;28;20049;-84
2023/10/08 09:20:27;;;;;;;7.78;1.50;;;19.50;99.90;;;;;;4977449;28;20379;-80
2023/10/08 09:23:13;;;;;;;4.85;1.60;;;19.70;99.90;;;;;;5008883;28;20045;-80
2023/10/08 09:25:44;;;;;;;8.32;1.90;;;19.70;99.90;;;;;;5003668;28;20037;-81
2023/10/08 09:28:14;;;;;;;5.38;1.40;;;19.70;99.90;;;;;;4996225;28;20065;-81
2023/10/08 09:30:40;;;;;;;5.25;1.77;;;19.80;99.90;;;;;;4996305;28;20045;-82
2023/10/08 09:33:07;;;;;;;4.40;1.77;;;19.80;99.90;;;;;;4995169;28;20041;-81
2023/10/08 09:35:33;;;;;;;6.88;1.48;;;19.60;99.90;;;;;;5011430;28;20099;-82
2023/10/08 09:38:04;;;;;;;11.63;1.92;;;19.50;99.90;;;;;;4995030;28;20033;-78
2023/10/08 09:40:30;;;;;;;4.88;1.48;;;19.60;99.90;;;;;;5010978;28;20379;-81
2023/10/08 09:42:56;;;;;;;7.72;1.38;;;19.80;99.90;;;;;;4996719;28;20038;-83
2023/10/08 09:45:22;;;;;;;5.15;1.23;;;19.90;99.90;;;;;;5013815;28;20048;-81
2023/10/08 09:47:55;;;;;;;7.68;1.50;;;20.00;99.90;;;;;;5004932;28;20347;-82
2023/10/08 09:50:37;;;;;;;7.13;1.40;;;19.90;99.90;;;;;;5012187;28;20124;-81
2023/10/08 09:53:22;;;;;;;5.25;1.48;;;19.90;99.90;;;;;;5006975;28;20075;-77
2023/10/08 09:55:57;;;;;;;4.82;1.48;;;20.10;99.90;;;;;;5006678;28;20386;-83
2023/10/08 09:58:28;;;;;;;7.75;1.92;;;20.10;99.90;;;;;;4999644;28;20045;-83
2023/10/08 10:00:57;;;;;;;5.15;1.55;;;20.20;99.90;;;;;;5044417;28;20067;-81
2023/10/08 10:03:27;;;;;;;6.78;1.60;;;20.10;99.90;;;;;;5003039;28;20041;-83
2023/10/08 10:05:58;;;;;;;3.78;1.23;;;20.20;99.90;;;;;;4990119;28;20045;-81
2023/10/08 10:08:27;;;;;;;5.80;1.30;;;20.30;99.90;;;;;;5023664;28;20049;-79
2023/10/08 10:11:02;;;;;;;5.25;1.38;;;20.40;99.90;;;;;;5008526;28;20080;-79
2023/10/08 10:13:34;;;;;;;7.57;1.83;;;20.40;99.90;;;;;;5007601;28;20041;-80
2023/10/08 10:15:59;;;;;;;5.43;1.35;;;20.40;99.90;;;;;;5014977;28;20096;-83
2023/10/08 10:18:31;;;;;;;6.18;1.58;;;20.50;99.90;;;;;;4996966;28;20041;-80
2023/10/08 10:21:12;;;;;;;5.40;1.33;;;20.40;99.90;;;;;;4997967;28;20559;-83
2023/10/08 10:23:42;;;;;;;8.00;1.25;;;20.30;99.90;;;;;;5026877;28;20046;-82
2023/10/08 10:26:31;;;;;;;2.85;1.38;;;20.30;99.90;;;;;;4987835;28;20050;-81
2023/10/08 10:29:15;;;;;;;6.45;1.58;;;20.40;99.90;;;;;;4995348;28;20497;-78
2023/10/08 10:31:46;;;;;;;3.22;1.30;;;19.60;99.90;;;;;;4990821;28;20486;-81
2023/10/08 10:34:16;;;;;;;3.75;1.38;;;20.30;99.90;;;;;;5015040;28;20141;-80
2023/10/08 10:36:43;;;;;;;8.52;1.23;;;20.20;99.90;;;;;;4995125;28;20072;-82
2023/10/08 10:39:16;;;;;;;4.82;1.30;;;20.20;99.90;;;;;;4989691;28;20497;-79
2023/10/08 10:41:46;;;;;;;4.47;1.33;;;20.50;99.90;;;;;;4995707;28;20087;-80
2023/10/08 10:44:13;;;;;;;32.25;4.57;;;20.40;99.90;;;;;;4994518;28;20528;-82
2023/10/08 10:46:43;;;;;;;6.25;1.90;;;20.70;99.90;;;;;;4985952;28;20037;-81
2023/10/08 10:49:21;;;;;;;8.93;1.50;;;20.70;99.90;;;;;;5010440;28;20034;-82
2023/10/08 10:52:03;;;;;;;8.20;1.30;;;20.70;99.90;;;;;;4995517;28;20055;-82
2023/10/08 10:54:36;;;;;;;9.50;2.03;;;20.70;99.90;;;;;;4995522;28;20045;-84
2023/10/08 10:57:05;;;;;;;36.60;5.65;;;20.80;99.90;;;;;;4994860;28;20044;-81
2023/10/08 10:59:39;;;;;;;5.28;1.60;;;20.80;99.90;;;;;;4963837;28;20172;-82
2023/10/08 11:02:07;;;;;;;6.20;1.60;;;20.70;99.90;;;;;;5012481;28;20041;-82
2023/10/08 11:04:47;;;;;;;5.55;1.55;;;20.60;99.90;;;;;;4993117;28;20044;-83
2023/10/08 11:07:23;;;;;;;8.05;1.30;;;20.60;99.90;;;;;;4980842;28;20076;-83
2023/10/08 11:09:52;;;;;;;4.07;1.38;;;20.50;99.90;;;;;;5017270;28;20140;-80
2023/10/08 11:12:22;;;;;;;8.68;1.23;;;20.50;99.90;;;;;;4974825;28;20585;-85
2023/10/08 11:14:51;;;;;;;6.63;1.88;;;20.40;99.90;;;;;;5027468;28;20112;-80
2023/10/08 11:17:24;;;;;;;10.98;1.90;;;20.30;99.90;;;;;;5014193;28;20046;-81
2023/10/08 11:19:50;;;;;;;5.20;1.73;;;20.40;99.90;;;;;;4996868;28;20398;-82
2023/10/08 11:22:22;;;;;;;8.57;2.05;;;20.50;99.90;;;;;;5013085;28;20056;-81
2023/10/08 11:24:53;;;;;;;6.75;1.65;;;20.70;99.90;;;;;;4980754;28;20076;-80
2023/10/08 11:27:29;;;;;;;4.25;1.27;;;20.60;99.90;;;;;;4974986;28;20111;-81
2023/10/08 11:29:57;;;;;;;7.18;1.70;;;20.70;99.90;;;;;;5014101;28;20052;-82
2023/10/08 11:32:27;;;;;;;5.88;1.60;;;20.70;99.90;;;;;;4996883;28;20096;-83
2023/10/08 11:34:59;;;;;;;5.35;1.35;;;20.70;99.90;;;;;;4995827;28;20128;-83
2023/10/08 11:37:30;;;;;;;9.38;1.40;;;20.70;99.90;;;;;;4996528;28;20049;-82
2023/10/08 11:39:59;;;;;;;5.63;1.67;;;20.80;99.90;;;;;;5014648;28;20475;-81
2023/10/08 11:42:51;;;;;;;4.60;1.38;;;20.80;99.90;;;;;;5010944;28;20042;-82
2023/10/08 11:45:18;;;;;;;8.10;1.88;;;20.80;99.90;;;;;;5000865;28;20092;-83
2023/10/08 11:47:55;;;;;;;5.13;1.33;;;20.70;99.90;;;;;;4983067;28;20045;-83
2023/10/08 11:50:30;;;;;;;6.45;1.60;;;20.80;99.90;;;;;;4968496;28;20056;-83
2023/10/08 11:53:05;;;;;;;6.15;1.33;;;20.90;99.90;;;;;;4993560;28;20041;-83
2023/10/08 11:55:36;;;;;;;5.05;1.83;;;20.80;99.90;;;;;;5011773;28;20120;-83
2023/10/08 11:58:17;;;;;;;5.88;1.75;;;20.70;99.90;;;;;;5006527;28;20037;-83
2023/10/08 12:00:44;;;;;;;5.93;1.70;;;20.70;99.90;;;;;;4997539;28;20359;-82
2023/10/08 12:03:17;;;;;;;5.22;1.30;;;20.70;99.90;;;;;;4997588;28;20029;-84
2023/10/08 12:05:47;;;;;;;10.32;2.05;;;20.70;99.90;;;;;;4975280;28;20041;-84
2023/10/08 12:08:17;;;;;;;3.00;1.20;;;20.80;99.90;;;;;;4998755;28;20361;-84
2023/10/08 12:10:45;;;;;;;4.43;1.17;;;20.80;99.90;;;;;;4977849;28;20449;-82
2023/10/08 12:13:28;;;;;;;6.53;1.30;;;20.80;99.90;;;;;;4994109;28;20045;-84
2023/10/08 12:16:12;;;;;;;8.23;1.40;;;20.90;99.90;;;;;;5021104;28;20046;-82
2023/10/08 12:18:43;;;;;;;4.18;1.30;;;20.90;99.90;;;;;;4998534;28;20033;-81
2023/10/08 12:21:15;;;;;;;4.63;1.38;;;21.00;99.90;;;;;;5006867;28;20057;-83
2023/10/08 12:23:49;;;;;;;5.32;1.40;;;21.10;99.90;;;;;;4998272;28;20125;-82
2023/10/08 12:26:21;;;;;;;5.88;1.45;;;21.20;99.90;;;;;;5011924;28;20481;-79
2023/10/08 12:28:48;;;;;;;4.40;1.30;;;21.00;99.90;;;;;;4993566;28;20100;-81
2023/10/08 12:31:22;;;;;;;7.57;1.90;;;21.10;99.90;;;;;;5008922;28;20705;-80
2023/10/08 12:33:48;;;;;;;4.57;1.30;;;21.10;99.90;;;;;;4979053;28;20064;-80
2023/10/08 12:36:16;;;;;;;5.10;1.30;;;20.90;99.90;;;;;;4979475;28;20045;-80
2023/10/08 12:38:43;;;;;;;7.57;1.40;;;20.90;99.90;;;;;;4977361;28;20104;-80
2023/10/08 12:41:12;;;;;;;4.50;1.40;;;20.90;99.90;;;;;;5011519;28;20117;-79
2023/10/08 12:43:42;;;;;;;5.15;1.25;;;20.90;99.90;;;;;;4994468;28;20044;-82
2023/10/08 12:46:15;;;;;;;7.30;1.80;;;20.90;99.90;;;;;;4993291;28;20033;-79
2023/10/08 12:48:43;;;;;;;8.57;1.60;;;20.90;99.90;;;;;;4992981;28;20051;-82
2023/10/08 12:51:11;;;;;;;4.30;1.40;;;20.80;99.90;;;;;;5012229;28;20059;-80
2023/10/08 12:53:37;;;;;;;3.42;1.35;;;20.70;99.90;;;;;;5011204;28;20096;-80
2023/10/08 12:56:07;;;;;;;3.25;1.30;;;20.70;99.90;;;;;;4996008;28;20041;-83
2023/10/08 12:58:41;;;;;;;12.10;2.00;;;20.70;99.90;;;;;;5014684;28;20046;-79
2023/10/08 13:01:11;;;;;;;3.95;1.40;;;20.60;99.90;;;;;;5010780;28;20055;-76
2023/10/08 13:03:47;;;;;;;5.15;1.45;;;20.70;99.90;;;;;;5010967;28;20083;-79
2023/10/08 13:06:28;;;;;;;7.57;1.80;;;20.70;99.90;;;;;;4991186;28;20076;-77
2023/10/08 13:08:58;;;;;;;5.82;1.13;;;20.70;99.90;;;;;;5006920;28;20390;-78
2023/10/08 13:11:26;;;;;;;4.18;1.52;;;20.80;99.90;;;;;;4992332;28;20071;-78
2023/10/08 13:13:56;;;;;;;5.18;1.65;;;21.00;99.90;;;;;;4992085;28;20045;-79
2023/10/08 13:16:23;;;;;;;4.60;1.50;;;21.00;99.90;;;;;;5000953;28;20046;-79
2023/10/08 13:18:49;;;;;;;6.78;1.88;;;20.80;99.90;;;;;;5008261;28;20041;-78
2023/10/08 13:21:16;;;;;;;7.65;1.50;;;20.90;99.90;;;;;;4996371;28;20058;-78
2023/10/08 13:23:42;;;;;;;4.68;1.40;;;21.00;99.90;;;;;;4976719;28;20041;-79
2023/10/08 13:26:08;;;;;;;7.45;2.58;;;21.00;99.90;;;;;;5017905;28;20080;-79
2023/10/08 13:28:37;;;;;;;4.47;1.63;;;21.10;99.90;;;;;;4994388;28;20631;-78
2023/10/08 13:31:09;;;;;;;10.52;1.73;;;21.20;99.90;;;;;;4993433;28;20041;-77
2023/10/08 13:33:40;;;;;;;5.78;1.65;;;21.20;99.90;;;;;;4993617;28;20107;-79
2023/10/08 13:36:11;;;;;;;6.97;1.67;;;21.30;99.90;;;;;;5005449;28;20108;-78
2023/10/08 13:38:37;;;;;;;4.90;1.40;;;21.30;99.90;;;;;;5009680;28;20041;-78
2023/10/08 13:41:15;;;;;;;5.95;1.48;;;21.50;99.90;;;;;;4992722;28;20482;-78
2023/10/08 13:43:45;;;;;;;6.47;1.60;;;21.60;99.90;;;;;;4999854;28;20038;-77
2023/10/08 13:46:13;;;;;;;3.90;1.23;;;21.60;99.90;;;;;;4983271;28;20048;-80
2023/10/08 13:48:40;;;;;;;6.65;1.52;;;21.60;99.90;;;;;;4993691;28;20410;-77
2023/10/08 13:51:13;;;;;;;7.57;1.88;;;21.60;99.90;;;;;;5009804;28;20045;-79
2023/10/08 13:53:52;;;;;;;6.13;1.70;;;21.40;99.90;;;;;;5005577;28;20077;-77
2023/10/08 13:56:20;;;;;;;5.63;1.67;;;21.30;99.90;;;;;;5008853;28;20509;-79
2023/10/08 13:58:49;;;;;;;7.55;1.60;;;21.30;99.90;;;;;;5008695;28;20041;-79
2023/10/08 14:01:21;;;;;;;5.68;1.40;;;21.20;99.90;;;;;;4991166;28;20441;-77
2023/10/08 14:03:55;;;;;;;5.18;1.77;;;21.00;99.90;;;;;;5008997;28;20041;-76
2023/10/08 14:06:22;;;;;;;4.78;1.40;;;21.00;99.90;;;;;;4990053;28;20045;-82
2023/10/08 14:08:54;;;;;;;4.80;1.60;;;20.90;99.90;;;;;;4992666;28;20401;-80
2023/10/08 14:11:24;;;;;;;6.10;1.20;;;20.80;99.90;;;;;;4990650;28;20048;-80
2023/10/08 14:13:53;;;;;;;5.95;1.60;;;20.80;99.90;;;;;;5006145;28;20034;-77